Shokyu Maru — JG5288 — position and weather

sailwx.info

Track history (hours):
 
Tides and Currents Weather Stations Pressure Air Temp Water Temp Dewpoint Dewpoint Depression Visibility Wind Speed Wind Dir Waves Ship Positions

Shokyu Maru

Last reported at 2017-Aug-17 21:30 UTC. Time now 2017-Aug-17 21:30 UTC.
Position N 35°36' E 139°56'.

Length 91 m; draft 5.2 m.

Type: Ship. MMSI: 431000253.

Date/timePositionNaut miles runAvg speedWind from/ knotsBaromVisibWave heightAir tempDewpointWater temp
2017-Aug-17 21:30N 35°36' E 139°56'1 1.4
2017-Aug-17 20:55N 35°36' E 139°55'0 0.0
2017-Aug-17 20:25N 35°36' E 139°55'0 0.0
2017-Aug-17 19:58N 35°36' E 139°55'0 0.0
2017-Aug-17 19:28N 35°36' E 139°55'0 0.0
2017-Aug-17 18:58N 35°36' E 139°55'0 0.0
2017-Aug-17 18:28N 35°36' E 139°55'0 0.0
2017-Aug-17 17:58N 35°36' E 139°55'0 0.0
2017-Aug-17 17:28N 35°36' E 139°55'0 0.0
2017-Aug-17 16:58N 35°36' E 139°55'0 0.0
2017-Aug-17 16:28N 35°36' E 139°55'0 0.0
2017-Aug-17 15:58N 35°36' E 139°55'0 0.0
2017-Aug-17 15:28N 35°36' E 139°55'0 0.0
2017-Aug-17 14:58N 35°36' E 139°55'0 0.0
2017-Aug-17 14:28N 35°36' E 139°55'0 0.0
2017-Aug-17 13:58N 35°36' E 139°55'0 0.0
2017-Aug-17 13:25N 35°36' E 139°55'0 0.0
2017-Aug-17 12:58N 35°36' E 139°55'0 0.0
2017-Aug-17 12:25N 35°36' E 139°55'0 0.0
2017-Aug-17 11:58N 35°36' E 139°55'2 5.1
2017-Aug-17 11:30N 35°33' E 139°56'510.5
2017-Aug-17 11:00N 35°29' E 139°60'1 0.1
2017-Aug-17 03:49N 35°29' E 140°01'2 6.8
2017-Aug-17 03:30N 35°30' E 139°59'612.0
2017-Aug-17 03:00N 35°36' E 139°59'4 0.9
2017-Aug-16 21:51N 35°40' E 139°57'2 5.6
2017-Aug-16 21:30N 35°39' E 139°58'4 7.4
2017-Aug-16 21:00N 35°36' E 139°55'1 1.2
2017-Aug-16 20:29N 35°36' E 139°55'0 0.0
2017-Aug-16 19:59N 35°36' E 139°55'0 0.0
2017-Aug-16 19:29N 35°36' E 139°55'0 0.0
2017-Aug-16 18:59N 35°36' E 139°55'0 0.0
2017-Aug-16 18:29N 35°36' E 139°55'0 0.0
2017-Aug-16 17:59N 35°36' E 139°55'0 0.0
2017-Aug-16 17:29N 35°36' E 139°55'0 0.0
2017-Aug-16 16:59N 35°36' E 139°55'0 0.0
2017-Aug-16 16:26N 35°36' E 139°55'0 0.0
2017-Aug-16 15:59N 35°36' E 139°55'0 0.0
2017-Aug-16 15:26N 35°36' E 139°55'0 0.0
2017-Aug-16 14:59N 35°36' E 139°55'0 0.0
2017-Aug-16 14:29N 35°36' E 139°55'0 0.0
2017-Aug-16 13:20N 35°36' E 139°55'0 0.0
2017-Aug-16 12:59N 35°36' E 139°55'0 0.0
2017-Aug-16 12:26N 35°36' E 139°55'0 0.0
2017-Aug-16 11:32N 35°36' E 139°55'0 0.6
2017-Aug-16 11:29N 35°36' E 139°55'3 7.4
2017-Aug-16 11:01N 35°33' E 139°52'5 9.5
2017-Aug-16 10:30N 35°29' E 139°48'510.2
2017-Aug-16 10:00N 35°26' E 139°44'4 7.5
2017-Aug-16 09:31N 35°24' E 139°40'0 0.3
2017-Aug-16 08:58N 35°24' E 139°40'0 0.0
2017-Aug-16 08:28N 35°24' E 139°40'0 0.0
2017-Aug-16 07:58N 35°24' E 139°40'0 0.0
2017-Aug-16 07:25N 35°24' E 139°40'0 0.0
2017-Aug-16 06:58N 35°24' E 139°40'0 0.0
2017-Aug-16 06:25N 35°24' E 139°40'0 0.0
2017-Aug-16 05:58N 35°24' E 139°40'0 0.0
2017-Aug-16 05:28N 35°24' E 139°40'0 0.0
2017-Aug-16 04:58N 35°24' E 139°40'0 0.0
2017-Aug-16 04:28N 35°24' E 139°40'0 0.0
2017-Aug-16 03:59N 35°24' E 139°40'0 0.3
2017-Aug-16 03:28N 35°24' E 139°40'2 3.8
2017-Aug-16 03:01N 35°23' E 139°41'611.9
2017-Aug-16 02:30N 35°27' E 139°47'510.3
2017-Aug-16 02:01N 35°31' E 139°51'0 0.2
2017-Aug-16 01:30N 35°31' E 139°51'0 0.0
2017-Aug-16 01:00N 35°31' E 139°51'0 0.0
2017-Aug-16 00:30N 35°31' E 139°51'0 0.0
2017-Aug-16 00:00N 35°31' E 139°51'0 0.0
2017-Aug-15 23:30N 35°31' E 139°51'0 0.0
2017-Aug-15 23:00N 35°31' E 139°51'0 0.0
2017-Aug-15 22:27N 35°31' E 139°51'0 1.1
2017-Aug-15 22:00N 35°31' E 139°51'611.6
2017-Aug-15 21:30N 35°33' E 139°58'611.7
2017-Aug-15 21:00N 35°36' E 140°05'1 1.8
2017-Aug-15 20:22N 35°36' E 140°06'0 0.0
2017-Aug-15 19:49N 35°36' E 140°06'0 0.0
2017-Aug-15 19:28N 35°36' E 140°06'0 0.0
2017-Aug-15 18:49N 35°36' E 140°06'0 0.0
2017-Aug-15 17:31N 35°36' E 140°06'0 0.0
2017-Aug-15 17:16N 35°36' E 140°06'0 0.0
2017-Aug-15 03:43N 35°36' E 140°06'0 0.9
2017-Aug-15 03:29N 35°35' E 140°06'5 8.5
2017-Aug-15 02:55N 35°34' E 140°00'410.0
2017-Aug-15 02:30N 35°35' E 139°56'2 4.0
2017-Aug-15 02:00N 35°37' E 139°57'4 0.9
2017-Aug-14 21:45N 35°40' E 139°57'2 5.7
2017-Aug-14 21:28N 35°39' E 139°58'4 8.1
2017-Aug-14 21:00N 35°36' E 139°56'1 1.7
2017-Aug-14 20:29N 35°35' E 139°55'0 0.0
2017-Aug-14 19:59N 35°35' E 139°55'0 0.0
2017-Aug-14 18:56N 35°35' E 139°55'0 0.0
2017-Aug-14 18:26N 35°35' E 139°55'0 0.0
2017-Aug-14 17:59N 35°35' E 139°55'0 0.0
2017-Aug-14 17:26N 35°35' E 139°55'0 0.0
2017-Aug-14 16:59N 35°35' E 139°55'0 0.0
2017-Aug-14 16:29N 35°35' E 139°55'0 0.0
2017-Aug-14 15:59N 35°35' E 139°55'0 0.0
2017-Aug-14 15:29N 35°35' E 139°55'0 0.1
2017-Aug-14 14:59N 35°35' E 139°55'0 0.0
2017-Aug-14 14:29N 35°36' E 139°55'0 0.0
2017-Aug-14 13:59N 35°36' E 139°55'0 0.0
2017-Aug-14 13:29N 35°36' E 139°55'0 0.0
2017-Aug-14 12:59N 35°36' E 139°55'0 0.4
2017-Aug-14 12:30N 35°35' E 139°55'510.0
2017-Aug-14 12:00N 35°32' E 139°51'4 8.1
2017-Aug-14 11:30N 35°31' E 139°46'0 0.6
2017-Aug-14 10:59N 35°32' E 139°46'0 0.0
2017-Aug-14 10:29N 35°32' E 139°46'0 0.0
2017-Aug-14 09:59N 35°32' E 139°46'0 0.0
2017-Aug-14 09:29N 35°32' E 139°46'0 0.0
2017-Aug-14 08:59N 35°32' E 139°46'0 0.0
2017-Aug-14 08:29N 35°32' E 139°46'0 0.0
2017-Aug-14 07:59N 35°32' E 139°46'0 0.0
2017-Aug-14 07:29N 35°32' E 139°46'0 0.0
2017-Aug-14 06:53N 35°32' E 139°46'0 0.2
2017-Aug-14 06:29N 35°31' E 139°46'3 5.5
2017-Aug-14 06:00N 35°30' E 139°43'3 5.7
2017-Aug-14 05:30N 35°27' E 139°44'2 3.2
2017-Aug-14 05:00N 35°27' E 139°46'4 8.1
2017-Aug-14 04:30N 35°29' E 139°50'5 9.3
2017-Aug-14 04:00N 35°33' E 139°54'510.8
2017-Aug-14 03:30N 35°37' E 139°58'3 0.6
2017-Aug-13 21:47N 35°40' E 139°57'2 5.9
2017-Aug-13 21:30N 35°39' E 139°58'4 8.1
2017-Aug-13 21:00N 35°36' E 139°55'0 0.8
2017-Aug-13 20:30N 35°36' E 139°54'0 0.0
2017-Aug-13 19:48N 35°36' E 139°54'0 0.0
2017-Aug-13 19:24N 35°36' E 139°54'0 0.0
2017-Aug-13 19:00N 35°36' E 139°54'0 0.0
2017-Aug-13 18:30N 35°36' E 139°54'0 0.0
2017-Aug-13 18:00N 35°36' E 139°54'0 0.1
2017-Aug-13 17:30N 35°36' E 139°54'0 0.0
2017-Aug-13 17:00N 35°36' E 139°54'0 0.0
2017-Aug-13 16:30N 35°36' E 139°54'0 0.0
2017-Aug-13 16:00N 35°36' E 139°54'0 0.1
2017-Aug-13 15:30N 35°36' E 139°54'0 0.1
2017-Aug-13 15:00N 35°36' E 139°54'0 0.1
2017-Aug-13 14:30N 35°36' E 139°54'0 0.0
2017-Aug-13 13:57N 35°36' E 139°54'0 0.0
2017-Aug-13 13:30N 35°36' E 139°54'0 0.0
2017-Aug-13 13:00N 35°36' E 139°54'0 0.0
2017-Aug-13 12:30N 35°36' E 139°54'0 0.6
2017-Aug-13 12:00N 35°36' E 139°54'510.0
2017-Aug-13 11:30N 35°32' E 139°51'5 9.3
2017-Aug-13 11:00N 35°30' E 139°45'0 0.3
2017-Aug-13 10:29N 35°30' E 139°45'0 0.0
2017-Aug-13 09:59N 35°30' E 139°45'0 0.0
2017-Aug-13 09:29N 35°30' E 139°45'0 0.0
2017-Aug-13 08:59N 35°30' E 139°45'0 0.0
2017-Aug-13 08:29N 35°30' E 139°45'0 0.0
2017-Aug-13 07:59N 35°30' E 139°45'0 0.0
2017-Aug-13 07:29N 35°30' E 139°45'0 0.0
2017-Aug-13 06:59N 35°30' E 139°45'0 0.0
2017-Aug-13 06:29N 35°30' E 139°45'0 0.0
2017-Aug-13 05:59N 35°30' E 139°45'0 0.0
2017-Aug-13 05:29N 35°30' E 139°45'0 0.0
2017-Aug-13 04:59N 35°30' E 139°45'0 0.3
2017-Aug-13 04:30N 35°30' E 139°45'3 6.4
2017-Aug-13 04:00N 35°28' E 139°42'3 6.3
2017-Aug-13 03:30N 35°27' E 139°46'611.5
2017-Aug-13 03:00N 35°31' E 139°52'611.9
2017-Aug-13 02:30N 35°36' E 139°56'3 0.6
2017-Aug-12 21:48N 35°38' E 139°58'310.6
2017-Aug-12 21:30N 35°36' E 139°55'1 1.0
2017-Aug-12 20:56N 35°35' E 139°55'0 0.0
2017-Aug-12 20:29N 35°35' E 139°55'0 0.0
2017-Aug-12 19:59N 35°35' E 139°55'0 0.0
2017-Aug-12 19:20N 35°35' E 139°55'0 0.0
2017-Aug-12 18:56N 35°35' E 139°55'0 0.0
2017-Aug-12 18:23N 35°35' E 139°55'0 0.0
2017-Aug-12 17:41N 35°35' E 139°55'0 0.0
2017-Aug-12 17:26N 35°35' E 139°55'0 0.0
2017-Aug-12 16:56N 35°35' E 139°55'0 0.0
2017-Aug-12 16:29N 35°35' E 139°55'0 0.0
2017-Aug-12 15:43N 35°35' E 139°55'0 0.0
2017-Aug-12 13:11N 35°35' E 139°54'0 0.0
2017-Aug-12 12:50N 35°35' E 139°54'0 0.0
2017-Aug-12 12:26N 35°35' E 139°54'0 0.1
2017-Aug-12 11:53N 35°35' E 139°55'0 0.2
2017-Aug-12 11:31N 35°35' E 139°55'3 6.9
2017-Aug-12 11:00N 35°33' E 139°52'510.0
2017-Aug-12 10:31N 35°29' E 139°48'510.1
2017-Aug-12 10:01N 35°25' E 139°43'3 6.8
2017-Aug-12 09:31N 35°24' E 139°40'0 0.2
2017-Aug-12 08:59N 35°24' E 139°40'0 0.0
2017-Aug-12 08:29N 35°24' E 139°40'0 0.0
2017-Aug-12 07:59N 35°24' E 139°40'0 0.0
2017-Aug-12 07:29N 35°24' E 139°40'0 0.0
2017-Aug-12 06:56N 35°24' E 139°40'0 0.0
2017-Aug-12 06:26N 35°24' E 139°40'0 0.0
2017-Aug-12 05:59N 35°24' E 139°40'0 0.0
2017-Aug-12 05:29N 35°24' E 139°40'0 1.0
2017-Aug-12 05:00N 35°24' E 139°40'5 9.5
2017-Aug-12 04:30N 35°26' E 139°45'612.4
2017-Aug-12 04:00N 35°30' E 139°51'611.9
2017-Aug-12 03:30N 35°35' E 139°55'510.0
2017-Aug-12 02:59N 35°40' E 139°58'1 0.2
2017-Aug-11 21:48N 35°40' E 139°57'2 5.2
2017-Aug-11 21:30N 35°39' E 139°58'4 8.2
2017-Aug-11 21:00N 35°36' E 139°56'1 1.7
2017-Aug-11 20:28N 35°35' E 139°55'0 0.0
2017-Aug-11 17:22N 35°35' E 139°55'0 0.0
2017-Aug-11 16:10N 35°35' E 139°55'0 0.3
2017-Aug-11 15:58N 35°35' E 139°55'3 5.6
2017-Aug-11 15:31N 35°33' E 139°53'5 9.9
2017-Aug-11 15:00N 35°30' E 139°48'2 2.2
2017-Aug-11 13:58N 35°30' E 139°45'0 0.0
2017-Aug-11 13:28N 35°30' E 139°45'0 0.0
2017-Aug-11 12:58N 35°30' E 139°45'0 0.0
2017-Aug-11 12:28N 35°30' E 139°45'0 0.0
2017-Aug-11 11:58N 35°30' E 139°45'0 0.0
2017-Aug-11 11:28N 35°30' E 139°45'0 0.0
2017-Aug-11 10:58N 35°30' E 139°45'0 0.0
2017-Aug-11 10:28N 35°30' E 139°45'0 0.0
2017-Aug-11 09:55N 35°30' E 139°45'0 0.0
2017-Aug-11 09:28N 35°30' E 139°45'0 0.0
2017-Aug-11 08:58N 35°30' E 139°45'0 0.0
2017-Aug-11 08:28N 35°30' E 139°45'0 0.0
2017-Aug-11 07:58N 35°30' E 139°45'2 3.6
2017-Aug-11 07:30N 35°29' E 139°43'3 5.4
2017-Aug-11 07:00N 35°27' E 139°44'4 7.9
2017-Aug-11 06:30N 35°28' E 139°49'0 0.1
2017-Aug-11 06:00N 35°28' E 139°49'0 0.0
2017-Aug-11 05:24N 35°28' E 139°49'0 0.0
2017-Aug-11 05:00N 35°28' E 139°49'0 0.1
2017-Aug-11 04:30N 35°28' E 139°49'510.0
2017-Aug-11 04:00N 35°32' E 139°53'611.8
2017-Aug-11 03:30N 35°37' E 139°57'4 0.7
2017-Aug-10 21:48N 35°40' E 139°57'2 5.9
2017-Aug-10 21:29N 35°39' E 139°58'4 8.2
2017-Aug-10 21:00N 35°36' E 139°56'1 1.3
2017-Aug-10 20:28N 35°35' E 139°55'0 0.0
2017-Aug-10 19:58N 35°35' E 139°55'0 0.0
2017-Aug-10 19:10N 35°35' E 139°55'0 0.0
2017-Aug-10 17:55N 35°35' E 139°55'0 0.0
2017-Aug-10 17:28N 35°35' E 139°55'0 0.0
2017-Aug-10 16:58N 35°35' E 139°55'0 0.1
2017-Aug-10 16:28N 35°35' E 139°55'0 0.0
2017-Aug-10 15:58N 35°35' E 139°55'0 0.0
2017-Aug-10 15:28N 35°35' E 139°55'0 0.0
2017-Aug-10 14:58N 35°35' E 139°55'0 0.0
2017-Aug-10 14:28N 35°35' E 139°55'0 0.0
2017-Aug-10 13:58N 35°35' E 139°55'0 0.0
2017-Aug-10 13:28N 35°35' E 139°55'0 0.0
2017-Aug-10 12:52N 35°35' E 139°55'0 0.1
2017-Aug-10 12:28N 35°35' E 139°55'2 4.3
2017-Aug-10 12:00N 35°34' E 139°53'510.0
2017-Aug-10 11:30N 35°30' E 139°49'5 9.7
2017-Aug-10 11:00N 35°26' E 139°45'5 9.3
2017-Aug-10 10:30N 35°23' E 139°41'1 2.7
2017-Aug-10 09:58N 35°24' E 139°40'0 0.0
2017-Aug-10 09:28N 35°24' E 139°40'0 0.0
2017-Aug-10 08:58N 35°24' E 139°40'0 0.0
2017-Aug-10 08:28N 35°24' E 139°40'0 0.0
2017-Aug-10 07:58N 35°24' E 139°40'0 0.0
2017-Aug-10 07:28N 35°24' E 139°40'0 0.0
2017-Aug-10 06:58N 35°24' E 139°40'0 0.0
2017-Aug-10 06:28N 35°24' E 139°40'0 0.0
2017-Aug-10 05:58N 35°24' E 139°40'0 0.0
2017-Aug-10 05:28N 35°24' E 139°40'0 0.0
2017-Aug-10 04:58N 35°24' E 139°40'0 0.0
2017-Aug-10 04:28N 35°24' E 139°40'1 2.5
2017-Aug-10 04:00N 35°24' E 139°40'611.2
2017-Aug-10 03:30N 35°27' E 139°46'612.1
2017-Aug-10 03:00N 35°31' E 139°52'612.1
2017-Aug-10 02:30N 35°36' E 139°56'5 9.3
2017-Aug-10 02:00N 35°40' E 139°57'0 0.1
2017-Aug-09 22:13N 35°40' E 139°57'2 7.0
2017-Aug-09 21:58N 35°39' E 139°58'4 8.7
2017-Aug-09 21:30N 35°36' E 139°56'1 1.9
2017-Aug-09 20:56N 35°35' E 139°54'0 0.0
2017-Aug-09 20:14N 35°35' E 139°54'0 0.0
2017-Aug-09 19:53N 35°35' E 139°54'0 0.0
2017-Aug-09 19:29N 35°35' E 139°54'0 0.0
2017-Aug-09 18:59N 35°35' E 139°54'0 0.1
2017-Aug-09 18:29N 35°35' E 139°54'0 0.0
2017-Aug-09 17:59N 35°35' E 139°54'0 0.0
2017-Aug-09 17:29N 35°35' E 139°54'0 0.0
2017-Aug-09 16:59N 35°35' E 139°54'0 0.0
2017-Aug-09 16:29N 35°35' E 139°54'0 0.0
2017-Aug-09 15:59N 35°35' E 139°54'0 0.0
2017-Aug-09 15:26N 35°35' E 139°54'0 0.0
2017-Aug-09 14:59N 35°35' E 139°54'0 0.0
2017-Aug-09 14:29N 35°35' E 139°54'0 0.0
2017-Aug-09 13:59N 35°35' E 139°54'0 0.0
2017-Aug-09 13:29N 35°35' E 139°54'1 1.7
2017-Aug-09 12:59N 35°34' E 139°54'5 9.9
2017-Aug-09 12:30N 35°31' E 139°50'5 9.5
2017-Aug-09 12:00N 35°27' E 139°46'5 9.6
2017-Aug-09 11:30N 35°24' E 139°42'2 3.5
2017-Aug-09 11:00N 35°24' E 139°40'0 0.0
2017-Aug-09 10:30N 35°24' E 139°40'0 0.0
2017-Aug-09 10:00N 35°24' E 139°40'0 0.0
2017-Aug-09 09:30N 35°24' E 139°40'0 0.0
2017-Aug-09 09:00N 35°24' E 139°40'0 0.0
2017-Aug-09 08:30N 35°24' E 139°40'0 0.0
2017-Aug-09 08:00N 35°24' E 139°40'0 0.0
2017-Aug-09 07:30N 35°24' E 139°40'0 0.0
2017-Aug-09 07:00N 35°24' E 139°40'0 0.0
2017-Aug-09 06:30N 35°24' E 139°40'0 0.0
2017-Aug-09 06:00N 35°24' E 139°40'0 0.2
2017-Aug-09 05:30N 35°24' E 139°40'2 4.2
2017-Aug-09 05:00N 35°24' E 139°42'611.1
2017-Aug-09 04:30N 35°27' E 139°48'611.3
2017-Aug-09 04:00N 35°32' E 139°52'611.2
2017-Aug-09 03:30N 35°36' E 139°57'4 0.7
2017-Aug-08 21:34N 35°40' E 139°57'110.1
2017-Aug-08 21:30N 35°39' E 139°58'4 8.5
2017-Aug-08 21:00N 35°36' E 139°55'1 1.5
2017-Aug-08 20:30N 35°35' E 139°55'0 0.0
2017-Aug-08 20:00N 35°35' E 139°55'0 0.0
2017-Aug-08 19:27N 35°35' E 139°55'0 0.1
2017-Aug-08 18:57N 35°35' E 139°55'0 0.0
2017-Aug-08 18:30N 35°35' E 139°55'0 0.1
2017-Aug-08 18:00N 35°35' E 139°55'0 0.0
2017-Aug-08 17:30N 35°35' E 139°55'0 0.0
2017-Aug-08 17:00N 35°35' E 139°55'0 0.0
2017-Aug-08 16:24N 35°35' E 139°55'0 0.0
2017-Aug-08 16:00N 35°35' E 139°55'0 0.0
2017-Aug-08 15:30N 35°35' E 139°55'0 0.0
2017-Aug-08 15:00N 35°35' E 139°55'0 0.0
2017-Aug-08 14:30N 35°35' E 139°55'0 0.0
2017-Aug-08 14:00N 35°35' E 139°55'0 0.1
2017-Aug-08 13:18N 35°35' E 139°55'0 0.1
2017-Aug-08 12:57N 35°35' E 139°55'0 0.1
2017-Aug-08 12:30N 35°35' E 139°55'0 0.1
2017-Aug-08 12:00N 35°35' E 139°55'0 0.1
2017-Aug-08 11:30N 35°35' E 139°55'0 0.0
2017-Aug-08 11:00N 35°35' E 139°55'0 0.0
2017-Aug-08 10:30N 35°35' E 139°55'0 0.0
2017-Aug-08 10:00N 35°35' E 139°55'0 0.0
2017-Aug-08 09:30N 35°35' E 139°55'0 0.0
2017-Aug-08 08:58N 35°35' E 139°55'0 0.0
2017-Aug-08 08:28N 35°35' E 139°55'0 0.1
2017-Aug-08 07:58N 35°35' E 139°55'3 6.8
2017-Aug-08 07:31N 35°33' E 139°52'510.1
2017-Aug-08 07:01N 35°30' E 139°47'1 1.7
2017-Aug-08 06:28N 35°31' E 139°46'0 0.0
2017-Aug-08 05:58N 35°31' E 139°46'0 0.0
2017-Aug-08 05:28N 35°31' E 139°46'0 0.0
2017-Aug-08 04:58N 35°31' E 139°46'0 0.0
2017-Aug-08 04:28N 35°31' E 139°46'0 0.0
2017-Aug-08 03:58N 35°31' E 139°46'0 0.0
2017-Aug-08 03:28N 35°31' E 139°46'0 0.0
2017-Aug-08 02:58N 35°31' E 139°46'0 0.0
2017-Aug-08 02:28N 35°31' E 139°46'0 0.0
2017-Aug-08 01:58N 35°31' E 139°46'0 0.0
2017-Aug-08 01:25N 35°31' E 139°46'0 0.0
2017-Aug-08 00:58N 35°31' E 139°46'0 0.0
2017-Aug-08 00:22N 35°31' E 139°46'0 0.0
2017-Aug-07 23:58N 35°31' E 139°46'0 0.6
2017-Aug-07 23:29N 35°31' E 139°46'4 8.4
2017-Aug-07 23:01N 35°29' E 139°42'3 7.0
2017-Aug-07 22:30N 35°27' E 139°45'4 8.4
2017-Aug-07 22:00N 35°29' E 139°50'5 9.6
2017-Aug-07 21:30N 35°32' E 139°54'  
Track history (hours):
 
Tides and Currents Weather Stations Pressure Air Temp Water Temp Dewpoint Dewpoint Depression Visibility Wind Speed Wind Dir Waves Ship Positions

Shokyu Maru

Last reported at 2017-Aug-17 21:30 UTC. Time now 2017-Aug-17 21:30 UTC.
Position N 35°36' E 139°56'.

Length 91 m; draft 5.2 m.

Type: Ship. MMSI: 431000253.

Date/timePositionNaut miles runAvg speedWind from/ knotsBaromVisibWave heightAir tempDewpointWater temp
2017-Aug-17 21:30N 35°36' E 139°56'1 1.4
2017-Aug-17 20:55N 35°36' E 139°55'0 0.0
2017-Aug-17 20:25N 35°36' E 139°55'0 0.0
2017-Aug-17 19:58N 35°36' E 139°55'0 0.0
2017-Aug-17 19:28N 35°36' E 139°55'0 0.0
2017-Aug-17 18:58N 35°36' E 139°55'0 0.0
2017-Aug-17 18:28N 35°36' E 139°55'0 0.0
2017-Aug-17 17:58N 35°36' E 139°55'0 0.0
2017-Aug-17 17:28N 35°36' E 139°55'0 0.0
2017-Aug-17 16:58N 35°36' E 139°55'0 0.0
2017-Aug-17 16:28N 35°36' E 139°55'0 0.0
2017-Aug-17 15:58N 35°36' E 139°55'0 0.0
2017-Aug-17 15:28N 35°36' E 139°55'0 0.0
2017-Aug-17 14:58N 35°36' E 139°55'0 0.0
2017-Aug-17 14:28N 35°36' E 139°55'0 0.0
2017-Aug-17 13:58N 35°36' E 139°55'0 0.0
2017-Aug-17 13:25N 35°36' E 139°55'0 0.0
2017-Aug-17 12:58N 35°36' E 139°55'0 0.0
2017-Aug-17 12:25N 35°36' E 139°55'0 0.0
2017-Aug-17 11:58N 35°36' E 139°55'2 5.1
2017-Aug-17 11:30N 35°33' E 139°56'510.5
2017-Aug-17 11:00N 35°29' E 139°60'1 0.1
2017-Aug-17 03:49N 35°29' E 140°01'2 6.8
2017-Aug-17 03:30N 35°30' E 139°59'612.0
2017-Aug-17 03:00N 35°36' E 139°59'4 0.9
2017-Aug-16 21:51N 35°40' E 139°57'2 5.6
2017-Aug-16 21:30N 35°39' E 139°58'4 7.4
2017-Aug-16 21:00N 35°36' E 139°55'1 1.2
2017-Aug-16 20:29N 35°36' E 139°55'0 0.0
2017-Aug-16 19:59N 35°36' E 139°55'0 0.0
2017-Aug-16 19:29N 35°36' E 139°55'0 0.0
2017-Aug-16 18:59N 35°36' E 139°55'0 0.0
2017-Aug-16 18:29N 35°36' E 139°55'0 0.0
2017-Aug-16 17:59N 35°36' E 139°55'0 0.0
2017-Aug-16 17:29N 35°36' E 139°55'0 0.0
2017-Aug-16 16:59N 35°36' E 139°55'0 0.0
2017-Aug-16 16:26N 35°36' E 139°55'0 0.0
2017-Aug-16 15:59N 35°36' E 139°55'0 0.0
2017-Aug-16 15:26N 35°36' E 139°55'0 0.0
2017-Aug-16 14:59N 35°36' E 139°55'0 0.0
2017-Aug-16 14:29N 35°36' E 139°55'0 0.0
2017-Aug-16 13:20N 35°36' E 139°55'0 0.0
2017-Aug-16 12:59N 35°36' E 139°55'0 0.0
2017-Aug-16 12:26N 35°36' E 139°55'0 0.0
2017-Aug-16 11:32N 35°36' E 139°55'0 0.6
2017-Aug-16 11:29N 35°36' E 139°55'3 7.4
2017-Aug-16 11:01N 35°33' E 139°52'5 9.5
2017-Aug-16 10:30N 35°29' E 139°48'510.2
2017-Aug-16 10:00N 35°26' E 139°44'4 7.5
2017-Aug-16 09:31N 35°24' E 139°40'0 0.3
2017-Aug-16 08:58N 35°24' E 139°40'0 0.0
2017-Aug-16 08:28N 35°24' E 139°40'0 0.0
2017-Aug-16 07:58N 35°24' E 139°40'0 0.0
2017-Aug-16 07:25N 35°24' E 139°40'0 0.0
2017-Aug-16 06:58N 35°24' E 139°40'0 0.0
2017-Aug-16 06:25N 35°24' E 139°40'0 0.0
2017-Aug-16 05:58N 35°24' E 139°40'0 0.0
2017-Aug-16 05:28N 35°24' E 139°40'0 0.0
2017-Aug-16 04:58N 35°24' E 139°40'0 0.0
2017-Aug-16 04:28N 35°24' E 139°40'0 0.0
2017-Aug-16 03:59N 35°24' E 139°40'0 0.3
2017-Aug-16 03:28N 35°24' E 139°40'2 3.8
2017-Aug-16 03:01N 35°23' E 139°41'611.9
2017-Aug-16 02:30N 35°27' E 139°47'510.3
2017-Aug-16 02:01N 35°31' E 139°51'0 0.2
2017-Aug-16 01:30N 35°31' E 139°51'0 0.0
2017-Aug-16 01:00N 35°31' E 139°51'0 0.0
2017-Aug-16 00:30N 35°31' E 139°51'0 0.0
2017-Aug-16 00:00N 35°31' E 139°51'0 0.0
2017-Aug-15 23:30N 35°31' E 139°51'0 0.0
2017-Aug-15 23:00N 35°31' E 139°51'0 0.0
2017-Aug-15 22:27N 35°31' E 139°51'0 1.1
2017-Aug-15 22:00N 35°31' E 139°51'611.6
2017-Aug-15 21:30N 35°33' E 139°58'611.7
2017-Aug-15 21:00N 35°36' E 140°05'1 1.8
2017-Aug-15 20:22N 35°36' E 140°06'0 0.0
2017-Aug-15 19:49N 35°36' E 140°06'0 0.0
2017-Aug-15 19:28N 35°36' E 140°06'0 0.0
2017-Aug-15 18:49N 35°36' E 140°06'0 0.0
2017-Aug-15 17:31N 35°36' E 140°06'0 0.0
2017-Aug-15 17:16N 35°36' E 140°06'0 0.0
2017-Aug-15 03:43N 35°36' E 140°06'0 0.9
2017-Aug-15 03:29N 35°35' E 140°06'5 8.5
2017-Aug-15 02:55N 35°34' E 140°00'410.0
2017-Aug-15 02:30N 35°35' E 139°56'2 4.0
2017-Aug-15 02:00N 35°37' E 139°57'4 0.9
2017-Aug-14 21:45N 35°40' E 139°57'2 5.7
2017-Aug-14 21:28N 35°39' E 139°58'4 8.1
2017-Aug-14 21:00N 35°36' E 139°56'1 1.7
2017-Aug-14 20:29N 35°35' E 139°55'0 0.0
2017-Aug-14 19:59N 35°35' E 139°55'0 0.0
2017-Aug-14 18:56N 35°35' E 139°55'0 0.0
2017-Aug-14 18:26N 35°35' E 139°55'0 0.0
2017-Aug-14 17:59N 35°35' E 139°55'0 0.0
2017-Aug-14 17:26N 35°35' E 139°55'0 0.0
2017-Aug-14 16:59N 35°35' E 139°55'0 0.0
2017-Aug-14 16:29N 35°35' E 139°55'0 0.0
2017-Aug-14 15:59N 35°35' E 139°55'0 0.0
2017-Aug-14 15:29N 35°35' E 139°55'0 0.1
2017-Aug-14 14:59N 35°35' E 139°55'0 0.0
2017-Aug-14 14:29N 35°36' E 139°55'0 0.0
2017-Aug-14 13:59N 35°36' E 139°55'0 0.0
2017-Aug-14 13:29N 35°36' E 139°55'0 0.0
2017-Aug-14 12:59N 35°36' E 139°55'0 0.4
2017-Aug-14 12:30N 35°35' E 139°55'510.0
2017-Aug-14 12:00N 35°32' E 139°51'4 8.1
2017-Aug-14 11:30N 35°31' E 139°46'0 0.6
2017-Aug-14 10:59N 35°32' E 139°46'0 0.0
2017-Aug-14 10:29N 35°32' E 139°46'0 0.0
2017-Aug-14 09:59N 35°32' E 139°46'0 0.0
2017-Aug-14 09:29N 35°32' E 139°46'0 0.0
2017-Aug-14 08:59N 35°32' E 139°46'0 0.0
2017-Aug-14 08:29N 35°32' E 139°46'0 0.0
2017-Aug-14 07:59N 35°32' E 139°46'0 0.0
2017-Aug-14 07:29N 35°32' E 139°46'0 0.0
2017-Aug-14 06:53N 35°32' E 139°46'0 0.2
2017-Aug-14 06:29N 35°31' E 139°46'3 5.5
2017-Aug-14 06:00N 35°30' E 139°43'3 5.7
2017-Aug-14 05:30N 35°27' E 139°44'2 3.2
2017-Aug-14 05:00N 35°27' E 139°46'4 8.1
2017-Aug-14 04:30N 35°29' E 139°50'5 9.3
2017-Aug-14 04:00N 35°33' E 139°54'510.8
2017-Aug-14 03:30N 35°37' E 139°58'3 0.6
2017-Aug-13 21:47N 35°40' E 139°57'2 5.9
2017-Aug-13 21:30N 35°39' E 139°58'4 8.1
2017-Aug-13 21:00N 35°36' E 139°55'0 0.8
2017-Aug-13 20:30N 35°36' E 139°54'0 0.0
2017-Aug-13 19:48N 35°36' E 139°54'0 0.0
2017-Aug-13 19:24N 35°36' E 139°54'0 0.0
2017-Aug-13 19:00N 35°36' E 139°54'0 0.0
2017-Aug-13 18:30N 35°36' E 139°54'0 0.0
2017-Aug-13 18:00N 35°36' E 139°54'0 0.1
2017-Aug-13 17:30N 35°36' E 139°54'0 0.0
2017-Aug-13 17:00N 35°36' E 139°54'0 0.0
2017-Aug-13 16:30N 35°36' E 139°54'0 0.0
2017-Aug-13 16:00N 35°36' E 139°54'0 0.1
2017-Aug-13 15:30N 35°36' E 139°54'0 0.1
2017-Aug-13 15:00N 35°36' E 139°54'0 0.1
2017-Aug-13 14:30N 35°36' E 139°54'0 0.0
2017-Aug-13 13:57N 35°36' E 139°54'0 0.0
2017-Aug-13 13:30N 35°36' E 139°54'0 0.0
2017-Aug-13 13:00N 35°36' E 139°54'0 0.0
2017-Aug-13 12:30N 35°36' E 139°54'0 0.6
2017-Aug-13 12:00N 35°36' E 139°54'510.0
2017-Aug-13 11:30N 35°32' E 139°51'5 9.3
2017-Aug-13 11:00N 35°30' E 139°45'0 0.3
2017-Aug-13 10:29N 35°30' E 139°45'0 0.0
2017-Aug-13 09:59N 35°30' E 139°45'0 0.0
2017-Aug-13 09:29N 35°30' E 139°45'0 0.0
2017-Aug-13 08:59N 35°30' E 139°45'0 0.0
2017-Aug-13 08:29N 35°30' E 139°45'0 0.0
2017-Aug-13 07:59N 35°30' E 139°45'0 0.0
2017-Aug-13 07:29N 35°30' E 139°45'0 0.0
2017-Aug-13 06:59N 35°30' E 139°45'0 0.0
2017-Aug-13 06:29N 35°30' E 139°45'0 0.0
2017-Aug-13 05:59N 35°30' E 139°45'0 0.0
2017-Aug-13 05:29N 35°30' E 139°45'0 0.0
2017-Aug-13 04:59N 35°30' E 139°45'0 0.3
2017-Aug-13 04:30N 35°30' E 139°45'3 6.4
2017-Aug-13 04:00N 35°28' E 139°42'3 6.3
2017-Aug-13 03:30N 35°27' E 139°46'611.5
2017-Aug-13 03:00N 35°31' E 139°52'611.9
2017-Aug-13 02:30N 35°36' E 139°56'3 0.6
2017-Aug-12 21:48N 35°38' E 139°58'310.6
2017-Aug-12 21:30N 35°36' E 139°55'1 1.0
2017-Aug-12 20:56N 35°35' E 139°55'0 0.0
2017-Aug-12 20:29N 35°35' E 139°55'0 0.0
2017-Aug-12 19:59N 35°35' E 139°55'0 0.0
2017-Aug-12 19:20N 35°35' E 139°55'0 0.0
2017-Aug-12 18:56N 35°35' E 139°55'0 0.0
2017-Aug-12 18:23N 35°35' E 139°55'0 0.0
2017-Aug-12 17:41N 35°35' E 139°55'0 0.0
2017-Aug-12 17:26N 35°35' E 139°55'0 0.0
2017-Aug-12 16:56N 35°35' E 139°55'0 0.0
2017-Aug-12 16:29N 35°35' E 139°55'0 0.0
2017-Aug-12 15:43N 35°35' E 139°55'0 0.0
2017-Aug-12 13:11N 35°35' E 139°54'0 0.0
2017-Aug-12 12:50N 35°35' E 139°54'0 0.0
2017-Aug-12 12:26N 35°35' E 139°54'0 0.1
2017-Aug-12 11:53N 35°35' E 139°55'0 0.2
2017-Aug-12 11:31N 35°35' E 139°55'3 6.9
2017-Aug-12 11:00N 35°33' E 139°52'510.0
2017-Aug-12 10:31N 35°29' E 139°48'510.1
2017-Aug-12 10:01N 35°25' E 139°43'3 6.8
2017-Aug-12 09:31N 35°24' E 139°40'0 0.2
2017-Aug-12 08:59N 35°24' E 139°40'0 0.0
2017-Aug-12 08:29N 35°24' E 139°40'0 0.0
2017-Aug-12 07:59N 35°24' E 139°40'0 0.0
2017-Aug-12 07:29N 35°24' E 139°40'0 0.0
2017-Aug-12 06:56N 35°24' E 139°40'0 0.0
2017-Aug-12 06:26N 35°24' E 139°40'0 0.0
2017-Aug-12 05:59N 35°24' E 139°40'0 0.0
2017-Aug-12 05:29N 35°24' E 139°40'0 1.0
2017-Aug-12 05:00N 35°24' E 139°40'5 9.5
2017-Aug-12 04:30N 35°26' E 139°45'612.4
2017-Aug-12 04:00N 35°30' E 139°51'611.9
2017-Aug-12 03:30N 35°35' E 139°55'510.0
2017-Aug-12 02:59N 35°40' E 139°58'1 0.2
2017-Aug-11 21:48N 35°40' E 139°57'2 5.2
2017-Aug-11 21:30N 35°39' E 139°58'4 8.2
2017-Aug-11 21:00N 35°36' E 139°56'1 1.7
2017-Aug-11 20:28N 35°35' E 139°55'0 0.0
2017-Aug-11 17:22N 35°35' E 139°55'0 0.0
2017-Aug-11 16:10N 35°35' E 139°55'0 0.3
2017-Aug-11 15:58N 35°35' E 139°55'3 5.6
2017-Aug-11 15:31N 35°33' E 139°53'5 9.9
2017-Aug-11 15:00N 35°30' E 139°48'2 2.2
2017-Aug-11 13:58N 35°30' E 139°45'0 0.0
2017-Aug-11 13:28N 35°30' E 139°45'0 0.0
2017-Aug-11 12:58N 35°30' E 139°45'0 0.0
2017-Aug-11 12:28N 35°30' E 139°45'0 0.0
2017-Aug-11 11:58N 35°30' E 139°45'0 0.0
2017-Aug-11 11:28N 35°30' E 139°45'0 0.0
2017-Aug-11 10:58N 35°30' E 139°45'0 0.0
2017-Aug-11 10:28N 35°30' E 139°45'0 0.0
2017-Aug-11 09:55N 35°30' E 139°45'0 0.0
2017-Aug-11 09:28N 35°30' E 139°45'0 0.0
2017-Aug-11 08:58N 35°30' E 139°45'0 0.0
2017-Aug-11 08:28N 35°30' E 139°45'0 0.0
2017-Aug-11 07:58N 35°30' E 139°45'2 3.6
2017-Aug-11 07:30N 35°29' E 139°43'3 5.4
2017-Aug-11 07:00N 35°27' E 139°44'4 7.9
2017-Aug-11 06:30N 35°28' E 139°49'0 0.1
2017-Aug-11 06:00N 35°28' E 139°49'0 0.0
2017-Aug-11 05:24N 35°28' E 139°49'0 0.0
2017-Aug-11 05:00N 35°28' E 139°49'0 0.1
2017-Aug-11 04:30N 35°28' E 139°49'510.0
2017-Aug-11 04:00N 35°32' E 139°53'611.8
2017-Aug-11 03:30N 35°37' E 139°57'4 0.7
2017-Aug-10 21:48N 35°40' E 139°57'2 5.9
2017-Aug-10 21:29N 35°39' E 139°58'4 8.2
2017-Aug-10 21:00N 35°36' E 139°56'1 1.3
2017-Aug-10 20:28N 35°35' E 139°55'0 0.0
2017-Aug-10 19:58N 35°35' E 139°55'0 0.0
2017-Aug-10 19:10N 35°35' E 139°55'0 0.0
2017-Aug-10 17:55N 35°35' E 139°55'0 0.0
2017-Aug-10 17:28N 35°35' E 139°55'0 0.0
2017-Aug-10 16:58N 35°35' E 139°55'0 0.1
2017-Aug-10 16:28N 35°35' E 139°55'0 0.0
2017-Aug-10 15:58N 35°35' E 139°55'0 0.0
2017-Aug-10 15:28N 35°35' E 139°55'0 0.0
2017-Aug-10 14:58N 35°35' E 139°55'0 0.0
2017-Aug-10 14:28N 35°35' E 139°55'0 0.0
2017-Aug-10 13:58N 35°35' E 139°55'0 0.0
2017-Aug-10 13:28N 35°35' E 139°55'0 0.0
2017-Aug-10 12:52N 35°35' E 139°55'0 0.1
2017-Aug-10 12:28N 35°35' E 139°55'2 4.3
2017-Aug-10 12:00N 35°34' E 139°53'510.0
2017-Aug-10 11:30N 35°30' E 139°49'5 9.7
2017-Aug-10 11:00N 35°26' E 139°45'5 9.3
2017-Aug-10 10:30N 35°23' E 139°41'1 2.7
2017-Aug-10 09:58N 35°24' E 139°40'0 0.0
2017-Aug-10 09:28N 35°24' E 139°40'0 0.0
2017-Aug-10 08:58N 35°24' E 139°40'0 0.0
2017-Aug-10 08:28N 35°24' E 139°40'0 0.0
2017-Aug-10 07:58N 35°24' E 139°40'0 0.0
2017-Aug-10 07:28N 35°24' E 139°40'0 0.0
2017-Aug-10 06:58N 35°24' E 139°40'0 0.0
2017-Aug-10 06:28N 35°24' E 139°40'0 0.0
2017-Aug-10 05:58N 35°24' E 139°40'0 0.0
2017-Aug-10 05:28N 35°24' E 139°40'0 0.0
2017-Aug-10 04:58N 35°24' E 139°40'0 0.0
2017-Aug-10 04:28N 35°24' E 139°40'1 2.5
2017-Aug-10 04:00N 35°24' E 139°40'611.2
2017-Aug-10 03:30N 35°27' E 139°46'612.1
2017-Aug-10 03:00N 35°31' E 139°52'612.1
2017-Aug-10 02:30N 35°36' E 139°56'5 9.3
2017-Aug-10 02:00N 35°40' E 139°57'0 0.1
2017-Aug-09 22:13N 35°40' E 139°57'2 7.0
2017-Aug-09 21:58N 35°39' E 139°58'4 8.7
2017-Aug-09 21:30N 35°36' E 139°56'1 1.9
2017-Aug-09 20:56N 35°35' E 139°54'0 0.0
2017-Aug-09 20:14N 35°35' E 139°54'0 0.0
2017-Aug-09 19:53N 35°35' E 139°54'0 0.0
2017-Aug-09 19:29N 35°35' E 139°54'0 0.0
2017-Aug-09 18:59N 35°35' E 139°54'0 0.1
2017-Aug-09 18:29N 35°35' E 139°54'0 0.0
2017-Aug-09 17:59N 35°35' E 139°54'0 0.0
2017-Aug-09 17:29N 35°35' E 139°54'0 0.0
2017-Aug-09 16:59N 35°35' E 139°54'0 0.0
2017-Aug-09 16:29N 35°35' E 139°54'0 0.0
2017-Aug-09 15:59N 35°35' E 139°54'0 0.0
2017-Aug-09 15:26N 35°35' E 139°54'0 0.0
2017-Aug-09 14:59N 35°35' E 139°54'0 0.0
2017-Aug-09 14:29N 35°35' E 139°54'0 0.0
2017-Aug-09 13:59N 35°35' E 139°54'0 0.0
2017-Aug-09 13:29N 35°35' E 139°54'1 1.7
2017-Aug-09 12:59N 35°34' E 139°54'5 9.9
2017-Aug-09 12:30N 35°31' E 139°50'5 9.5
2017-Aug-09 12:00N 35°27' E 139°46'5 9.6
2017-Aug-09 11:30N 35°24' E 139°42'2 3.5
2017-Aug-09 11:00N 35°24' E 139°40'0 0.0
2017-Aug-09 10:30N 35°24' E 139°40'0 0.0
2017-Aug-09 10:00N 35°24' E 139°40'0 0.0
2017-Aug-09 09:30N 35°24' E 139°40'0 0.0
2017-Aug-09 09:00N 35°24' E 139°40'0 0.0
2017-Aug-09 08:30N 35°24' E 139°40'0 0.0
2017-Aug-09 08:00N 35°24' E 139°40'0 0.0
2017-Aug-09 07:30N 35°24' E 139°40'0 0.0
2017-Aug-09 07:00N 35°24' E 139°40'0 0.0
2017-Aug-09 06:30N 35°24' E 139°40'0 0.0
2017-Aug-09 06:00N 35°24' E 139°40'0 0.2
2017-Aug-09 05:30N 35°24' E 139°40'2 4.2
2017-Aug-09 05:00N 35°24' E 139°42'611.1
2017-Aug-09 04:30N 35°27' E 139°48'611.3
2017-Aug-09 04:00N 35°32' E 139°52'611.2
2017-Aug-09 03:30N 35°36' E 139°57'4 0.7
2017-Aug-08 21:34N 35°40' E 139°57'110.1
2017-Aug-08 21:30N 35°39' E 139°58'4 8.5
2017-Aug-08 21:00N 35°36' E 139°55'1 1.5
2017-Aug-08 20:30N 35°35' E 139°55'0 0.0
2017-Aug-08 20:00N 35°35' E 139°55'0 0.0
2017-Aug-08 19:27N 35°35' E 139°55'0 0.1
2017-Aug-08 18:57N 35°35' E 139°55'0 0.0
2017-Aug-08 18:30N 35°35' E 139°55'0 0.1
2017-Aug-08 18:00N 35°35' E 139°55'0 0.0
2017-Aug-08 17:30N 35°35' E 139°55'0 0.0
2017-Aug-08 17:00N 35°35' E 139°55'0 0.0
2017-Aug-08 16:24N 35°35' E 139°55'0 0.0
2017-Aug-08 16:00N 35°35' E 139°55'0 0.0
2017-Aug-08 15:30N 35°35' E 139°55'0 0.0
2017-Aug-08 15:00N 35°35' E 139°55'0 0.0
2017-Aug-08 14:30N 35°35' E 139°55'0 0.0
2017-Aug-08 14:00N 35°35' E 139°55'0 0.1
2017-Aug-08 13:18N 35°35' E 139°55'0 0.1
2017-Aug-08 12:57N 35°35' E 139°55'0 0.1
2017-Aug-08 12:30N 35°35' E 139°55'0 0.1
2017-Aug-08 12:00N 35°35' E 139°55'0 0.1
2017-Aug-08 11:30N 35°35' E 139°55'0 0.0
2017-Aug-08 11:00N 35°35' E 139°55'0 0.0
2017-Aug-08 10:30N 35°35' E 139°55'0 0.0
2017-Aug-08 10:00N 35°35' E 139°55'0 0.0
2017-Aug-08 09:30N 35°35' E 139°55'0 0.0
2017-Aug-08 08:58N 35°35' E 139°55'0 0.0
2017-Aug-08 08:28N 35°35' E 139°55'0 0.1
2017-Aug-08 07:58N 35°35' E 139°55'3 6.8
2017-Aug-08 07:31N 35°33' E 139°52'510.1
2017-Aug-08 07:01N 35°30' E 139°47'1 1.7
2017-Aug-08 06:28N 35°31' E 139°46'0 0.0
2017-Aug-08 05:58N 35°31' E 139°46'0 0.0
2017-Aug-08 05:28N 35°31' E 139°46'0 0.0
2017-Aug-08 04:58N 35°31' E 139°46'0 0.0
2017-Aug-08 04:28N 35°31' E 139°46'0 0.0
2017-Aug-08 03:58N 35°31' E 139°46'0 0.0
2017-Aug-08 03:28N 35°31' E 139°46'0 0.0
2017-Aug-08 02:58N 35°31' E 139°46'0 0.0
2017-Aug-08 02:28N 35°31' E 139°46'0 0.0
2017-Aug-08 01:58N 35°31' E 139°46'0 0.0
2017-Aug-08 01:25N 35°31' E 139°46'0 0.0
2017-Aug-08 00:58N 35°31' E 139°46'0 0.0
2017-Aug-08 00:22N 35°31' E 139°46'0 0.0
2017-Aug-07 23:58N 35°31' E 139°46'0 0.6
2017-Aug-07 23:29N 35°31' E 139°46'4 8.4
2017-Aug-07 23:01N 35°29' E 139°42'3 7.0
2017-Aug-07 22:30N 35°27' E 139°45'4 8.4
2017-Aug-07 22:00N 35°29' E 139°50'5 9.6
2017-Aug-07 21:30N 35°32' E 139°54'  

Dump ship's entire track history